createdAt,value
2017-05-08T00:00:51.122Z,22.92
2017-05-08T00:01:51.195Z,22.88
2017-05-08T00:02:51.188Z,22.92
2017-05-08T00:03:51.196Z,22.83
2017-05-08T00:04:51.148Z,22.9
2017-05-08T00:05:50.844Z,22.82
2017-05-08T00:06:51.210Z,22.94
2017-05-08T00:07:51.170Z,22.95
2017-05-08T00:08:50.860Z,22.97
2017-05-08T00:09:50.868Z,22.92
2017-05-08T00:10:50.871Z,22.86
2017-05-08T00:11:51.188Z,22.94
2017-05-08T00:12:51.201Z,22.95
2017-05-08T00:13:51.208Z,22.82
2017-05-08T00:14:51.208Z,22.85
2017-05-08T00:15:50.911Z,22.91
2017-05-08T00:16:50.960Z,22.79
2017-05-08T00:17:51.279Z,22.9
2017-05-08T00:18:50.926Z,22.85
2017-05-08T00:19:51.239Z,22.95
2017-05-08T00:20:51.296Z,22.86
2017-05-08T00:21:51.301Z,22.83
2017-05-08T00:22:51.255Z,22.83
2017-05-08T00:23:51.315Z,22.92
2017-05-08T00:24:51.271Z,22.97
2017-05-08T00:25:51.324Z,22.91
2017-05-08T00:26:51.281Z,22.92
2017-05-08T00:27:51.340Z,22.85
2017-05-08T00:28:51.293Z,22.94
2017-05-08T00:29:51.350Z,22.85
2017-05-08T00:30:51.307Z,22.86
2017-05-08T00:31:50.999Z,22.92
2017-05-08T00:32:51.057Z,22.94
2017-05-08T00:33:51.330Z,22.83
2017-05-08T00:34:51.325Z,22.98
2017-05-08T00:35:51.024Z,22.95
2017-05-08T00:36:51.039Z,22.88
2017-05-08T00:37:51.383Z,22.9
2017-05-08T00:38:51.355Z,22.82
2017-05-08T00:39:51.359Z,22.94
2017-05-08T00:40:51.367Z,22.92
2017-05-08T00:41:51.065Z,22.88
2017-05-08T00:42:51.070Z,22.86
2017-05-08T00:43:51.385Z,22.86
2017-05-08T00:44:51.391Z,22.94
2017-05-08T00:45:51.395Z,22.95
2017-05-08T00:46:51.406Z,23.01
2017-05-08T00:47:51.803Z,22.97
2017-05-08T00:48:51.412Z,23.01
2017-05-08T00:49:51.426Z,22.9
2017-05-08T00:50:51.478Z,22.91
2017-05-08T00:51:51.433Z,22.95
2017-05-08T00:52:51.490Z,22.9
2017-05-08T00:53:50.877Z,22.95
2017-05-08T00:54:51.454Z,22.94
2017-05-08T00:55:51.458Z,22.91
2017-05-08T00:56:51.153Z,22.92
2017-05-08T00:57:51.518Z,22.86
2017-05-08T00:58:51.481Z,22.86
2017-05-08T00:59:51.488Z,22.85
2017-05-08T01:00:51.488Z,22.97
2017-05-08T01:01:51.181Z,22.92
2017-05-08T01:02:51.239Z,22.95
2017-05-08T01:03:51.507Z,22.88
2017-05-08T01:04:51.253Z,22.98
2017-05-08T01:05:51.521Z,22.94
2017-05-08T01:06:51.215Z,22.86
2017-05-08T01:07:51.534Z,22.88
2017-05-08T01:08:51.226Z,22.91
2017-05-08T01:09:51.543Z,22.85
2017-05-08T01:10:51.287Z,22.92
2017-05-08T01:11:51.556Z,22.92
2017-05-08T01:12:51.566Z,22.86
2017-05-08T01:13:51.347Z,22.91
2017-05-08T01:14:50.956Z,22.94
2017-05-08T01:15:51.582Z,22.94
2017-05-08T01:16:51.586Z,22.92
2017-05-08T01:17:51.283Z,22.91
2017-05-08T01:18:51.601Z,22.86
2017-05-08T01:19:51.346Z,22.98
2017-05-08T01:20:51.611Z,22.86
2017-05-08T01:21:51.370Z,22.95
2017-05-08T01:22:51.312Z,22.9
2017-05-08T01:23:51.322Z,22.9
2017-05-08T01:24:51.015Z,22.86
2017-05-08T01:25:51.642Z,22.98
2017-05-08T01:26:51.646Z,22.82
2017-05-08T01:27:51.658Z,22.98
2017-05-08T01:28:51.662Z,22.9
2017-05-08T01:29:51.665Z,22.92
2017-05-08T01:30:51.673Z,22.9
2017-05-08T01:31:51.730Z,22.9
2017-05-08T01:32:51.682Z,22.97
2017-05-08T01:33:51.747Z,22.91
2017-05-08T01:34:51.701Z,22.9
2017-05-08T01:35:51.802Z,22.92
2017-05-08T01:36:51.398Z,23
2017-05-08T01:37:51.719Z,22.94
2017-05-08T01:38:51.721Z,22.9
2017-05-08T01:39:51.724Z,22.91
2017-05-08T01:40:51.729Z,22.98
2017-05-08T01:41:51.427Z,22.88
2017-05-08T01:42:51.504Z,22.92
2017-05-08T01:43:51.754Z,22.9
2017-05-08T01:44:51.444Z,22.91
2017-05-08T01:45:51.761Z,22.97
2017-05-08T01:46:51.458Z,22.83
2017-05-08T01:47:51.465Z,22.88
2017-05-08T01:48:51.789Z,22.86
2017-05-08T01:49:51.526Z,22.98
2017-05-08T01:50:51.891Z,23
2017-05-08T01:51:51.796Z,22.91
2017-05-08T01:52:51.854Z,22.98
2017-05-08T01:53:51.813Z,22.94
2017-05-08T01:54:51.830Z,22.88
2017-05-08T01:55:51.836Z,22.98
2017-05-08T01:56:51.834Z,22.82
2017-05-08T01:57:51.525Z,22.88
2017-05-08T01:58:51.845Z,22.85
2017-05-08T01:59:51.539Z,22.94
2017-05-08T02:00:51.954Z,22.95
2017-05-08T02:01:51.910Z,22.9
2017-05-08T02:02:51.561Z,22.85
2017-05-08T02:03:51.563Z,22.86
2017-05-08T02:04:51.568Z,22.86
2017-05-08T02:05:51.883Z,22.95
2017-05-08T02:06:51.889Z,22.98
2017-05-08T02:07:51.899Z,22.91
2017-05-08T02:08:51.600Z,22.9
2017-05-08T02:09:51.337Z,22.85
2017-05-08T02:10:51.914Z,22.85
2017-05-08T02:11:51.972Z,22.8
2017-05-08T02:12:51.927Z,22.94
2017-05-08T02:13:51.932Z,22.91
2017-05-08T02:14:51.940Z,22.91
2017-05-08T02:15:51.943Z,22.92
2017-05-08T02:16:51.954Z,22.94
2017-05-08T02:17:51.961Z,22.9
2017-05-08T02:18:51.964Z,22.86
2017-05-08T02:19:52.019Z,23.01
2017-05-08T02:20:51.667Z,22.95
2017-05-08T02:21:51.982Z,22.92
2017-05-08T02:22:52.044Z,22.94
2017-05-08T02:23:51.997Z,22.9
2017-05-08T02:24:52.004Z,22.95
2017-05-08T02:25:52.010Z,22.9
2017-05-08T02:26:51.391Z,22.86
2017-05-08T02:27:51.762Z,22.92
2017-05-08T02:28:52.031Z,22.97
2017-05-08T02:29:51.411Z,22.85
2017-05-08T02:30:52.043Z,22.94
2017-05-08T02:31:52.050Z,22.88
2017-05-08T02:32:52.051Z,22.83
2017-05-08T02:33:52.063Z,22.88
2017-05-08T02:34:51.802Z,22.91
2017-05-08T02:35:52.119Z,22.88
2017-05-08T02:36:52.075Z,22.86
2017-05-08T02:37:51.773Z,22.98
2017-05-08T02:38:52.086Z,22.94
2017-05-08T02:39:51.784Z,22.82
2017-05-08T02:40:52.098Z,22.95
2017-05-08T02:41:52.105Z,22.91
2017-05-08T02:42:52.110Z,22.85
2017-05-08T02:43:52.124Z,22.91
2017-05-08T02:44:52.176Z,22.88
2017-05-08T02:45:52.130Z,22.91
2017-05-08T02:46:52.139Z,22.95
2017-05-08T02:47:51.882Z,22.86
2017-05-08T02:48:52.156Z,22.98
2017-05-08T02:49:51.895Z,22.88
2017-05-08T02:50:51.854Z,22.86
2017-05-08T02:51:52.166Z,22.88
2017-05-08T02:52:52.166Z,22.94
2017-05-08T02:53:52.180Z,22.94
2017-05-08T02:54:51.874Z,22.86
2017-05-08T02:55:51.878Z,22.95
2017-05-08T02:56:52.198Z,22.98
2017-05-08T02:57:52.206Z,22.94
2017-05-08T02:58:52.211Z,22.98
2017-05-08T02:59:51.941Z,22.82
2017-05-08T03:00:52.220Z,22.88
2017-05-08T03:01:52.231Z,22.95
2017-05-08T03:02:52.238Z,22.95
2017-05-08T03:03:52.243Z,22.83
2017-05-08T03:04:52.246Z,22.91
2017-05-08T03:05:51.942Z,22.92
2017-05-08T03:06:52.256Z,22.92
2017-05-08T03:07:52.266Z,22.94
2017-05-08T03:08:52.277Z,22.98
2017-05-08T03:09:52.274Z,22.88
2017-05-08T03:10:52.367Z,23.01
2017-05-08T03:11:52.025Z,22.94
2017-05-08T03:12:52.297Z,22.83
2017-05-08T03:13:52.310Z,22.85
2017-05-08T03:14:52.312Z,22.86
2017-05-08T03:15:52.314Z,22.94
2017-05-08T03:16:52.328Z,22.82
2017-05-08T03:17:52.375Z,22.98
2017-05-08T03:18:52.385Z,22.95
2017-05-08T03:19:52.029Z,22.9
2017-05-08T03:20:52.118Z,22.91
2017-05-08T03:21:52.354Z,22.85
2017-05-08T03:22:52.360Z,22.82
2017-05-08T03:23:52.374Z,22.85
2017-05-08T03:24:52.370Z,22.85
2017-05-08T03:25:52.424Z,22.9
2017-05-08T03:26:51.760Z,22.91
2017-05-08T03:27:52.389Z,22.86
2017-05-08T03:28:52.081Z,22.94
2017-05-08T03:29:52.094Z,22.94
2017-05-08T03:30:52.406Z,22.91
2017-05-08T03:31:52.412Z,22.92
2017-05-08T03:32:52.418Z,22.88
2017-05-08T03:33:52.427Z,22.94
2017-05-08T03:34:52.431Z,22.83
2017-05-08T03:35:52.440Z,22.92
2017-05-08T03:36:52.133Z,22.8
2017-05-08T03:37:52.448Z,22.91
2017-05-08T03:38:52.195Z,22.83
2017-05-08T03:39:51.839Z,22.9
2017-05-08T03:40:51.897Z,22.92
2017-05-08T03:41:52.525Z,22.82
2017-05-08T03:42:52.578Z,22.88
2017-05-08T03:43:52.486Z,22.79
2017-05-08T03:44:52.492Z,22.86
2017-05-08T03:45:52.502Z,22.86
2017-05-08T03:46:52.509Z,22.83
2017-05-08T03:47:52.508Z,22.91
2017-05-08T03:48:52.516Z,22.9
2017-05-08T03:49:52.216Z,22.88
2017-05-08T03:50:52.527Z,22.91
2017-05-08T03:51:52.225Z,23
2017-05-08T03:52:52.229Z,22.85
2017-05-08T03:53:52.547Z,22.92
2017-05-08T03:54:52.553Z,22.9
2017-05-08T03:55:52.559Z,22.91
2017-05-08T03:56:52.562Z,22.86
2017-05-08T03:57:52.263Z,22.86
2017-05-08T03:58:52.268Z,22.86
2017-05-08T03:59:52.587Z,22.92
2017-05-08T04:00:52.589Z,22.91
2017-05-08T04:01:52.605Z,22.92
2017-05-08T04:02:52.599Z,22.88
2017-05-08T04:03:52.351Z,22.95
2017-05-08T04:04:52.614Z,22.97
2017-05-08T04:05:52.618Z,22.86
2017-05-08T04:06:52.628Z,22.86
2017-05-08T04:07:52.319Z,22.88
2017-05-08T04:08:52.328Z,22.88
2017-05-08T04:09:52.343Z,22.92
2017-05-08T04:10:52.699Z,22.88
2017-05-08T04:11:52.342Z,22.95
2017-05-08T04:12:52.662Z,22.9
2017-05-08T04:13:52.359Z,22.95
2017-05-08T04:14:52.679Z,22.85
2017-05-08T04:15:52.679Z,22.85
2017-05-08T04:16:52.376Z,22.91
2017-05-08T04:17:52.693Z,22.86
2017-05-08T04:18:52.719Z,22.85
2017-05-08T04:19:52.757Z,22.83
2017-05-08T04:20:52.449Z,22.95
2017-05-08T04:21:52.719Z,22.88
2017-05-08T04:22:52.725Z,22.88
2017-05-08T04:23:52.784Z,22.82
2017-05-08T04:24:52.734Z,22.95
2017-05-08T04:25:53.043Z,22.9
2017-05-08T04:26:52.436Z,22.97
2017-05-08T04:27:52.496Z,22.88
2017-05-08T04:28:52.811Z,22.97
2017-05-08T04:29:52.767Z,22.98
2017-05-08T04:30:52.770Z,22.98
2017-05-08T04:31:52.787Z,22.97
2017-05-08T04:32:52.790Z,22.98
2017-05-08T04:33:52.792Z,22.98
2017-05-08T04:34:52.802Z,22.97
2017-05-08T04:35:52.800Z,22.97
2017-05-08T04:36:52.820Z,23
2017-05-08T04:37:52.815Z,22.9
2017-05-08T04:38:52.254Z,22.88
2017-05-08T04:39:52.567Z,22.94
2017-05-08T04:40:52.525Z,22.94
2017-05-08T04:41:52.891Z,22.92
2017-05-08T04:42:52.847Z,22.86
2017-05-08T04:43:52.592Z,22.86
2017-05-08T04:44:52.910Z,22.91
2017-05-08T04:45:52.860Z,22.95
2017-05-08T04:46:52.919Z,22.95
2017-05-08T04:47:52.615Z,22.91
2017-05-08T04:48:52.983Z,22.91
2017-05-08T04:49:52.941Z,22.9
2017-05-08T04:50:52.635Z,22.88
2017-05-08T04:51:52.642Z,22.85
2017-05-08T04:52:52.907Z,22.86
2017-05-08T04:53:52.607Z,22.94
2017-05-08T04:54:52.922Z,22.95
2017-05-08T04:55:52.923Z,22.85
2017-05-08T04:56:52.619Z,22.97
2017-05-08T04:57:52.939Z,22.92
2017-05-08T04:58:52.683Z,22.91
2017-05-08T04:59:52.954Z,22.98
2017-05-08T05:00:52.960Z,22.88
2017-05-08T05:01:52.957Z,22.91
2017-05-08T05:02:53.021Z,22.98
2017-05-08T05:03:53.022Z,22.97
2017-05-08T05:04:52.977Z,23
2017-05-08T05:05:52.991Z,22.97
2017-05-08T05:06:52.994Z,22.95
2017-05-08T05:07:52.690Z,22.97
2017-05-08T05:08:53.011Z,23.02
2017-05-08T05:09:53.062Z,23.09
2017-05-08T05:10:52.754Z,23.01
2017-05-08T05:11:53.024Z,23.07
2017-05-08T05:12:52.723Z,23.05
2017-05-08T05:13:52.726Z,23.02
2017-05-08T05:14:53.038Z,23.01
2017-05-08T05:15:53.047Z,23.01
2017-05-08T05:16:52.742Z,23.01
2017-05-08T05:17:52.750Z,23
2017-05-08T05:18:52.805Z,22.98
2017-05-08T05:19:53.071Z,23.07
2017-05-08T05:20:53.074Z,23.04
2017-05-08T05:21:53.083Z,23.05
2017-05-08T05:22:53.091Z,23.02
2017-05-08T05:23:53.150Z,22.98
2017-05-08T05:24:53.105Z,23.01
2017-05-08T05:25:52.850Z,23.01
2017-05-08T05:26:53.164Z,23.05
2017-05-08T05:27:53.122Z,23.04
2017-05-08T05:28:53.178Z,23.05
2017-05-08T05:29:53.133Z,23.01
2017-05-08T05:30:53.152Z,22.98
2017-05-08T05:31:52.836Z,23.12
2017-05-08T05:32:53.210Z,23.04
2017-05-08T05:33:53.160Z,23.1
2017-05-08T05:34:53.167Z,23.16
2017-05-08T05:35:53.172Z,23.09
2017-05-08T05:36:53.227Z,23.15
2017-05-08T05:37:52.562Z,23.12
2017-05-08T05:38:52.877Z,23.09
2017-05-08T05:39:52.932Z,23.16
2017-05-08T05:40:53.201Z,23.15
2017-05-08T05:41:53.209Z,23.2
2017-05-08T05:42:53.220Z,23.13
2017-05-08T05:43:53.267Z,23.2
2017-05-08T05:44:52.963Z,23.19
2017-05-08T05:45:53.230Z,23.22
2017-05-08T05:46:53.233Z,23.27
2017-05-08T05:47:53.297Z,23.22
2017-05-08T05:48:53.285Z,23.22
2017-05-08T05:49:52.945Z,23.22
2017-05-08T05:50:53.311Z,23.28
2017-05-08T05:51:53.271Z,23.25
2017-05-08T05:52:53.274Z,23.16
2017-05-08T05:53:53.331Z,23.23
2017-05-08T05:54:52.977Z,23.19
2017-05-08T05:55:52.984Z,23.2
2017-05-08T05:56:52.994Z,23.25
2017-05-08T05:57:53.304Z,23.33
2017-05-08T05:58:53.316Z,23.36
2017-05-08T05:59:53.319Z,23.28
2017-05-08T06:00:53.325Z,23.28
2017-05-08T06:01:53.329Z,23.36
2017-05-08T06:02:53.338Z,23.38
2017-05-08T06:03:53.345Z,23.33
2017-05-08T06:04:53.350Z,23.27
2017-05-08T06:05:53.357Z,23.33
2017-05-08T06:06:53.047Z,23.31
2017-05-08T06:07:53.055Z,23.32
2017-05-08T06:08:53.371Z,23.32
2017-05-08T06:09:53.377Z,23.39
2017-05-08T06:10:53.431Z,23.42
2017-05-08T06:11:53.392Z,23.42
2017-05-08T06:12:53.085Z,23.35
2017-05-08T06:13:53.409Z,23.39
2017-05-08T06:14:53.407Z,23.38
2017-05-08T06:15:53.417Z,23.39
2017-05-08T06:16:53.107Z,23.39
2017-05-08T06:17:53.425Z,23.46
2017-05-08T06:18:53.172Z,23.4
2017-05-08T06:19:53.435Z,23.38
2017-05-08T06:20:52.819Z,23.43
2017-05-08T06:21:53.500Z,23.42
2017-05-08T06:22:53.458Z,23.39
2017-05-08T06:23:53.154Z,23.4
2017-05-08T06:24:53.160Z,23.36
2017-05-08T06:25:53.482Z,23.39
2017-05-08T06:26:53.531Z,23.38
2017-05-08T06:27:53.487Z,23.4
2017-05-08T06:28:53.180Z,23.38
2017-05-08T06:29:53.191Z,23.36
2017-05-08T06:30:53.193Z,23.4
2017-05-08T06:31:53.530Z,23.32
2017-05-08T06:32:53.578Z,23.33
2017-05-08T06:33:53.261Z,23.33
2017-05-08T06:34:53.578Z,23.39
2017-05-08T06:35:53.534Z,23.39
2017-05-08T06:36:53.542Z,23.28
2017-05-08T06:37:53.596Z,23.33
2017-05-08T06:38:53.608Z,23.32
2017-05-08T06:39:53.612Z,23.28
2017-05-08T06:40:53.620Z,23.33
2017-05-08T06:41:53.312Z,23.43
2017-05-08T06:42:53.580Z,23.36
2017-05-08T06:43:53.323Z,23.32
2017-05-08T06:44:53.639Z,23.31
2017-05-08T06:45:53.602Z,23.38
2017-05-08T06:46:53.655Z,23.36
2017-05-08T06:47:53.037Z,23.38
2017-05-08T06:48:53.352Z,23.31
2017-05-08T06:49:53.621Z,23.33
2017-05-08T06:50:53.627Z,23.31
2017-05-08T06:51:53.683Z,23.31
2017-05-08T06:52:53.640Z,23.31
2017-05-08T06:53:53.642Z,23.31
2017-05-08T06:54:53.649Z,23.32
2017-05-08T06:55:53.657Z,23.28
2017-05-08T06:56:53.664Z,23.35
2017-05-08T06:57:53.669Z,23.33
2017-05-08T06:58:53.729Z,23.32
2017-05-08T06:59:53.373Z,23.35
2017-05-08T07:00:53.380Z,23.17
2017-05-08T07:01:53.693Z,23.16
2017-05-08T07:02:53.445Z,23.16
2017-05-08T07:03:53.710Z,23.2
2017-05-08T07:04:53.711Z,23.19
2017-05-08T07:05:53.410Z,23.22
2017-05-08T07:06:53.826Z,23.23
2017-05-08T07:07:53.731Z,23.13
2017-05-08T07:08:53.426Z,23.13
2017-05-08T07:09:53.746Z,23.1
2017-05-08T07:10:53.798Z,23.12
2017-05-08T07:11:53.811Z,23.25
2017-05-08T07:12:53.766Z,23.25
2017-05-08T07:13:53.775Z,23.32
2017-05-08T07:14:53.780Z,23.35
2017-05-08T07:15:53.526Z,23.38
2017-05-08T07:16:53.791Z,23.39
2017-05-08T07:17:53.793Z,23.33
2017-05-08T07:18:53.175Z,23.35
2017-05-08T07:19:53.811Z,23.35
2017-05-08T07:20:53.815Z,23.31
2017-05-08T07:21:53.818Z,23.35
2017-05-08T07:22:53.822Z,23.32
2017-05-08T07:23:53.836Z,23.31
2017-05-08T07:24:53.888Z,23.28
2017-05-08T07:25:53.845Z,23.28
2017-05-08T07:26:53.598Z,23.33
2017-05-08T07:27:53.856Z,23.42
2017-05-08T07:28:53.555Z,23.57
2017-05-08T07:29:53.612Z,23.76
2017-05-08T07:30:53.567Z,23.72
2017-05-08T07:31:53.573Z,23.83
2017-05-08T07:32:53.887Z,23.98
2017-05-08T07:33:53.944Z,24.02
2017-05-08T07:34:53.901Z,24.16
2017-05-08T07:35:53.597Z,24.24
2017-05-08T07:36:53.966Z,24.37
2017-05-08T07:37:53.606Z,24.55
2017-05-08T07:38:53.926Z,24.71
2017-05-08T07:39:53.621Z,24.78
2017-05-08T07:40:53.628Z,24.81
2017-05-08T07:41:53.631Z,24.88
2017-05-08T07:42:53.689Z,25.09
2017-05-08T07:43:53.647Z,25.23
2017-05-08T07:44:53.964Z,25.38
2017-05-08T07:45:54.002Z,25.42
2017-05-08T07:46:53.666Z,25.38
2017-05-08T07:47:53.985Z,25.25
2017-05-08T07:48:53.999Z,25.4
2017-05-08T07:49:53.996Z,25.45
2017-05-08T07:50:54.034Z,25.6
2017-05-08T07:51:53.699Z,25.69
2017-05-08T07:52:53.705Z,25.7
2017-05-08T07:53:54.021Z,25.76
2017-05-08T07:54:53.719Z,25.8
2017-05-08T07:55:54.035Z,25.8
2017-05-08T07:56:54.091Z,25.82
2017-05-08T07:57:54.050Z,25.9
2017-05-08T07:58:54.056Z,25.98
2017-05-08T07:59:53.748Z,26.05
2017-05-08T08:00:54.068Z,25.99
2017-05-08T08:01:54.076Z,26.07
2017-05-08T08:02:53.771Z,25.99
2017-05-08T08:03:53.829Z,26.09
2017-05-08T08:04:54.100Z,26.09
2017-05-08T08:05:54.103Z,26.18
2017-05-08T08:06:54.109Z,26.18
2017-05-08T08:07:54.119Z,26.13
2017-05-08T08:08:54.172Z,26.09
2017-05-08T08:09:54.175Z,26.09
2017-05-08T08:10:54.137Z,26.18
2017-05-08T08:11:53.833Z,26.18
2017-05-08T08:12:54.151Z,26.23
2017-05-08T08:13:54.151Z,26.3
2017-05-08T08:14:54.177Z,26.39
2017-05-08T08:15:54.168Z,26.32
2017-05-08T08:16:54.175Z,26.2
2017-05-08T08:17:53.928Z,26.12
2017-05-08T08:18:53.881Z,26.17
2017-05-08T08:19:53.888Z,26.21
2017-05-08T08:20:53.628Z,26.28
2017-05-08T08:21:53.904Z,26.37
2017-05-08T08:22:53.910Z,26.4
2017-05-08T08:23:53.919Z,26.32
2017-05-08T08:24:54.271Z,26.29
2017-05-08T08:25:54.298Z,26.15
2017-05-08T08:26:53.630Z,26.32
2017-05-08T08:27:54.256Z,26.28
2017-05-08T08:28:54.264Z,26.36
2017-05-08T08:29:54.027Z,26.37
2017-05-08T08:30:53.661Z,26.29
2017-05-08T08:31:53.976Z,26.18
2017-05-08T08:32:54.295Z,26.17
2017-05-08T08:33:53.992Z,26.29
2017-05-08T08:34:54.005Z,26.25
2017-05-08T08:35:54.315Z,26.2
2017-05-08T08:36:54.324Z,26.28
2017-05-08T08:37:54.075Z,26.17
2017-05-08T08:38:54.026Z,26.2
2017-05-08T08:39:54.342Z,26.1
2017-05-08T08:40:54.044Z,26.2
2017-05-08T08:41:54.360Z,26.3
2017-05-08T08:42:54.368Z,26.32
2017-05-08T08:43:54.373Z,26.35
2017-05-08T08:44:54.434Z,26.28
2017-05-08T08:45:54.386Z,26.18
2017-05-08T08:46:53.775Z,26.06
2017-05-08T08:47:53.783Z,26.2
2017-05-08T08:48:54.411Z,26.21
2017-05-08T08:49:54.419Z,26.21
2017-05-08T08:50:54.425Z,26.23
2017-05-08T08:51:54.437Z,26.13
2017-05-08T08:52:54.130Z,26.15
2017-05-08T08:53:54.501Z,26.18
2017-05-08T08:54:54.457Z,26.26
2017-05-08T08:55:54.464Z,26.21
2017-05-08T08:56:53.850Z,26.13
2017-05-08T08:57:54.167Z,26.21
2017-05-08T08:58:54.175Z,26.13
2017-05-08T08:59:54.229Z,26.07
2017-05-08T09:00:54.499Z,25.82
2017-05-08T09:01:54.509Z,25.73
2017-05-08T09:02:54.641Z,25.69
2017-05-08T09:03:54.528Z,25.61
2017-05-08T09:04:53.957Z,25.57
2017-05-08T09:05:54.580Z,25.5
2017-05-08T09:06:54.229Z,25.57
2017-05-08T09:07:54.599Z,25.58
2017-05-08T09:08:54.553Z,25.58
2017-05-08T09:09:54.302Z,25.5
2017-05-08T09:10:54.566Z,25.45
2017-05-08T09:11:54.605Z,25.51
2017-05-08T09:12:54.586Z,25.47
2017-05-08T09:13:54.644Z,25.43
2017-05-08T09:14:54.594Z,25.36
2017-05-08T09:15:54.632Z,25.36
2017-05-08T09:16:54.606Z,25.33
2017-05-08T09:17:54.616Z,25.36
2017-05-08T09:18:54.311Z,25.5
2017-05-08T09:19:54.381Z,25.39
2017-05-08T09:20:54.638Z,25.4
2017-05-08T09:21:54.639Z,25.4
2017-05-08T09:22:54.694Z,25.5
2017-05-08T09:23:54.658Z,25.52
2017-05-08T09:24:54.043Z,25.51
2017-05-08T09:25:54.707Z,25.43
2017-05-08T09:26:54.729Z,25.51
2017-05-08T09:27:54.372Z,25.64
2017-05-08T09:28:54.694Z,25.69
2017-05-08T09:29:54.699Z,25.6
2017-05-08T09:30:54.407Z,25.61
2017-05-08T09:31:54.399Z,25.69
2017-05-08T09:32:54.717Z,25.76
2017-05-08T09:33:54.513Z,25.82
2017-05-08T09:34:54.420Z,25.85
2017-05-08T09:35:54.739Z,25.85
2017-05-08T09:36:54.488Z,25.92
2017-05-08T09:37:54.755Z,26.1
2017-05-08T09:38:54.448Z,26.07
2017-05-08T09:39:54.503Z,26.17
2017-05-08T09:40:54.460Z,26.1
2017-05-08T09:41:54.830Z,26.1
2017-05-08T09:42:54.481Z,26.06
2017-05-08T09:43:54.793Z,26.17
2017-05-08T09:44:54.493Z,26.28
2017-05-08T09:45:54.804Z,26.2
2017-05-08T09:46:54.501Z,26.35
2017-05-08T09:47:54.509Z,26.4
2017-05-08T09:48:54.518Z,26.47
2017-05-08T09:49:54.824Z,26.48
2017-05-08T09:50:54.529Z,26.5
2017-05-08T09:51:54.536Z,26.45
2017-05-08T09:52:54.598Z,26.32
2017-05-08T09:53:54.919Z,26.12
2017-05-08T09:54:54.920Z,26.06
2017-05-08T09:55:54.564Z,25.83
2017-05-08T09:56:54.880Z,25.87
2017-05-08T09:57:54.891Z,25.58
2017-05-08T09:58:54.946Z,25.58
2017-05-08T09:59:54.291Z,25.5
2017-05-08T10:00:54.647Z,25.55
2017-05-08T10:01:54.974Z,25.51
2017-05-08T10:02:54.930Z,25.4
2017-05-08T10:03:54.621Z,25.47
2017-05-08T10:04:54.999Z,25.52
2017-05-08T10:05:55.004Z,25.51
2017-05-08T10:06:54.954Z,25.45
2017-05-08T10:07:55.012Z,25.43
2017-05-08T10:08:54.663Z,25.42
2017-05-08T10:09:54.666Z,25.4
2017-05-08T10:10:55.035Z,25.43
2017-05-08T10:11:54.730Z,25.45
2017-05-08T10:12:55.044Z,25.46
2017-05-08T10:13:55.002Z,25.52
2017-05-08T10:14:55.009Z,25.54
2017-05-08T10:15:55.025Z,25.6
2017-05-08T10:17:26.797Z,25.92
2017-05-08T10:17:55.031Z,25.87
2017-05-08T10:18:54.416Z,26.1
2017-05-08T10:19:55.050Z,26.01
2017-05-08T10:20:55.051Z,26.15
2017-05-08T10:21:54.744Z,26.15
2017-05-08T10:22:54.803Z,26.23
2017-05-08T10:23:55.073Z,26.28
2017-05-08T10:24:55.081Z,26.36
2017-05-08T10:25:55.085Z,26.36
2017-05-08T10:26:55.095Z,26.29
2017-05-08T10:27:55.108Z,26.3
2017-05-08T10:28:55.157Z,26.3
2017-05-08T10:29:54.493Z,26.23
2017-05-08T10:30:55.121Z,26.44
2017-05-08T10:31:55.127Z,26.45
2017-05-08T10:32:55.135Z,26.4
2017-05-08T10:33:55.149Z,26.32
2017-05-08T10:34:55.152Z,26.2
2017-05-08T10:35:54.848Z,26.15
2017-05-08T10:36:54.855Z,26.1
2017-05-08T10:37:54.865Z,26.15
2017-05-08T10:38:54.867Z,26.17
2017-05-08T10:39:54.878Z,26.17
2017-05-08T10:40:54.937Z,26.09
2017-05-08T10:41:55.202Z,26.09
2017-05-08T10:42:55.264Z,26.13
2017-05-08T10:43:54.598Z,26.06
2017-05-08T10:44:55.272Z,26.1
2017-05-08T10:45:55.402Z,26.17
2017-05-08T10:46:54.981Z,26.21
2017-05-08T10:47:55.244Z,26.25
2017-05-08T10:48:54.942Z,26.35
2017-05-08T10:49:54.950Z,26.25
2017-05-08T10:50:55.318Z,26.23
2017-05-08T10:51:55.274Z,26.4
2017-05-08T10:52:55.284Z,26.44
2017-05-08T10:53:55.291Z,26.32
2017-05-08T10:54:55.295Z,26.67
2017-05-08T10:55:54.993Z,26.82
2017-05-08T10:56:55.002Z,26.63
2017-05-08T10:57:55.368Z,26.5
2017-05-08T10:58:55.327Z,26.57
2017-05-08T10:59:55.020Z,26.57
2017-05-08T11:00:55.391Z,26.55
2017-05-08T11:01:55.088Z,26.47
2017-05-08T11:02:55.096Z,26.5
2017-05-08T11:03:55.420Z,26.48
2017-05-08T11:04:55.056Z,26.51
2017-05-08T11:05:54.757Z,26.5
2017-05-08T11:06:55.075Z,26.5
2017-05-08T11:07:55.391Z,26.48
2017-05-08T11:08:55.403Z,26.45
2017-05-08T11:09:55.145Z,26.57
2017-05-08T11:10:55.512Z,26.48
2017-05-08T11:11:55.420Z,26.6
2017-05-08T11:12:55.117Z,26.52
2017-05-08T11:13:55.123Z,26.57
2017-05-08T11:14:55.492Z,26.47
2017-05-08T11:15:55.449Z,26.51
2017-05-08T11:16:55.510Z,26.63
2017-05-08T11:17:55.478Z,26.58
2017-05-08T11:18:55.479Z,26.47
2017-05-08T11:19:55.487Z,26.47
2017-05-08T11:20:55.485Z,26.29
2017-05-08T11:21:55.181Z,26.1
2017-05-08T11:22:55.502Z,25.97
2017-05-08T11:23:55.508Z,25.94
2017-05-08T11:24:55.563Z,26.02
2017-05-08T11:25:55.212Z,25.97
2017-05-08T11:26:55.223Z,25.82
2017-05-08T11:27:55.838Z,25.83
2017-05-08T11:28:55.597Z,25.87
2017-05-08T11:29:55.550Z,25.85
2017-05-08T11:30:55.252Z,25.82
2017-05-08T11:31:55.569Z,25.87
2017-05-08T11:32:55.277Z,25.73
2017-05-08T11:33:55.319Z,25.76
2017-05-08T11:34:55.586Z,25.75
2017-05-08T11:35:55.731Z,25.76
2017-05-08T11:36:55.289Z,25.97
2017-05-08T11:37:55.656Z,26.1
2017-05-08T11:38:55.667Z,26.02
2017-05-08T11:39:55.624Z,25.92
2017-05-08T11:40:55.679Z,25.95
2017-05-08T11:41:55.638Z,25.77
2017-05-08T11:42:55.649Z,25.92
2017-05-08T11:43:55.343Z,26.09
2017-05-08T11:44:55.660Z,26.12
2017-05-08T11:45:55.093Z,26.23
2017-05-08T11:46:55.672Z,26.4
2017-05-08T11:47:55.109Z,26.36
2017-05-08T11:48:55.736Z,26.39
2017-05-08T11:49:55.695Z,26.43
2017-05-08T11:50:55.701Z,26.39
2017-05-08T11:51:55.760Z,26.39
2017-05-08T11:52:55.717Z,26.4
2017-05-08T11:53:55.726Z,26.47
2017-05-08T11:54:55.754Z,26.44
2017-05-08T11:55:55.741Z,26.37
2017-05-08T11:56:55.756Z,26.43
2017-05-08T11:57:55.496Z,26.5
2017-05-08T11:58:55.817Z,26.5
2017-05-08T11:59:55.771Z,26.47
2017-05-08T12:00:55.830Z,26.51
2017-05-08T12:01:55.788Z,26.47
2017-05-08T12:02:55.794Z,26.55
2017-05-08T12:03:55.851Z,26.52
2017-05-08T12:04:55.809Z,26.48
2017-05-08T12:05:55.818Z,26.55
2017-05-08T12:06:55.821Z,26.51
2017-05-08T12:07:55.836Z,26.7
2017-05-08T12:08:55.892Z,26.7
2017-05-08T12:09:55.534Z,26.72
2017-05-08T12:10:55.851Z,26.8
2017-05-08T12:11:55.859Z,26.69
2017-05-08T12:12:55.866Z,26.73
2017-05-08T12:13:55.873Z,26.76
2017-05-08T12:14:55.261Z,26.76
2017-05-08T12:15:55.887Z,26.82
2017-05-08T12:16:55.896Z,26.72
2017-05-08T12:17:56.206Z,26.89
2017-05-08T12:18:55.914Z,26.88
2017-05-08T12:19:55.921Z,26.85
2017-05-08T12:20:55.931Z,26.81
2017-05-08T12:21:55.932Z,26.87
2017-05-08T12:22:55.636Z,26.84
2017-05-08T12:23:55.638Z,26.85
2017-05-08T12:24:55.961Z,26.85
2017-05-08T12:25:55.971Z,26.91
2017-05-08T12:26:55.665Z,26.91
2017-05-08T12:27:55.976Z,26.85
2017-05-08T12:28:55.676Z,26.81
2017-05-08T12:29:55.734Z,26.75
2017-05-08T12:30:56.003Z,26.85
2017-05-08T12:31:55.697Z,26.88
2017-05-08T12:32:55.704Z,26.88
2017-05-08T12:33:56.029Z,26.94
2017-05-08T12:34:55.721Z,26.97
2017-05-08T12:35:56.042Z,27.09
2017-05-08T12:36:56.050Z,27.09
2017-05-08T12:37:55.746Z,27.07
2017-05-08T12:38:56.073Z,27.13
2017-05-08T12:39:55.814Z,27.06
2017-05-08T12:40:56.080Z,27.12
2017-05-08T12:41:55.779Z,27.07
2017-05-08T12:42:55.787Z,26.99
2017-05-08T12:43:55.791Z,26.99
2017-05-08T12:44:55.798Z,26.97
2017-05-08T12:45:55.812Z,26.85
2017-05-08T12:46:55.509Z,26.84
2017-05-08T12:47:56.183Z,26.84
2017-05-08T12:48:56.194Z,26.85
2017-05-08T12:49:55.840Z,26.81
2017-05-08T12:50:56.159Z,26.84
2017-05-08T12:51:56.199Z,26.73
2017-05-08T12:52:55.867Z,26.7
2017-05-08T12:53:56.192Z,26.69
2017-05-08T12:54:55.880Z,26.69
2017-05-08T12:55:55.889Z,26.69
2017-05-08T12:56:56.203Z,26.72